sensor_id;sensor_type;location;lat;lon;timestamp;pressure;altitude;pressure_sealevel;temperature;humidity
18755;BME280;35061;47.664;9.166;2022-08-23T00:02:25;101493.12;;;17.25;73.65
18755;BME280;35061;47.664;9.166;2022-08-23T00:04:53;101489.17;;;17.22;73.64
18755;BME280;35061;47.664;9.166;2022-08-23T00:07:40;101492.34;;;17.19;73.71
18755;BME280;35061;47.664;9.166;2022-08-23T00:10:11;101491.00;;;17.14;73.95
18755;BME280;35061;47.664;9.166;2022-08-23T00:12:39;101486.78;;;17.09;73.51
18755;BME280;35061;47.664;9.166;2022-08-23T00:15:10;101484.16;;;17.06;73.44
18755;BME280;35061;47.664;9.166;2022-08-23T00:17:39;101483.12;;;17.03;73.43
18755;BME280;35061;47.664;9.166;2022-08-23T00:20:12;101482.86;;;17.01;73.44
18755;BME280;35061;47.664;9.166;2022-08-23T00:22:40;101479.66;;;16.99;73.69
18755;BME280;35061;47.664;9.166;2022-08-23T00:25:10;101487.53;;;16.93;73.86
18755;BME280;35061;47.664;9.166;2022-08-23T00:27:39;101494.37;;;16.90;74.37
18755;BME280;35061;47.664;9.166;2022-08-23T00:30:08;101483.05;;;16.86;74.73
18755;BME280;35061;47.664;9.166;2022-08-23T00:32:38;101486.45;;;16.84;75.01
18755;BME280;35061;47.664;9.166;2022-08-23T00:35:09;101488.29;;;16.82;75.29
18755;BME280;35061;47.664;9.166;2022-08-23T00:37:39;101479.88;;;16.78;75.53
18755;BME280;35061;47.664;9.166;2022-08-23T00:40:13;101486.72;;;16.75;75.80
18755;BME280;35061;47.664;9.166;2022-08-23T00:42:53;101480.66;;;16.73;76.25
18755;BME280;35061;47.664;9.166;2022-08-23T00:46:11;101478.02;;;16.69;77.63
18755;BME280;35061;47.664;9.166;2022-08-23T00:49:01;101483.55;;;16.67;78.03
18755;BME280;35061;47.664;9.166;2022-08-23T00:51:40;101487.47;;;16.64;77.52
18755;BME280;35061;47.664;9.166;2022-08-23T00:54:21;101483.52;;;16.62;78.00
18755;BME280;35061;47.664;9.166;2022-08-23T00:56:50;101485.61;;;16.61;77.56
18755;BME280;35061;47.664;9.166;2022-08-23T00:59:18;101486.91;;;16.60;77.31
18755;BME280;35061;47.664;9.166;2022-08-23T01:01:47;101494.01;;;16.59;76.98
18755;BME280;35061;47.664;9.166;2022-08-23T01:04:15;101488.78;;;16.57;76.77
18755;BME280;35061;47.664;9.166;2022-08-23T01:06:53;101482.70;;;16.55;76.69
18755;BME280;35061;47.664;9.166;2022-08-23T01:09:22;101496.10;;;16.53;76.75
18755;BME280;35061;47.664;9.166;2022-08-23T01:14:26;101493.20;;;16.47;76.63
18755;BME280;35061;47.664;9.166;2022-08-23T01:17:05;101495.80;;;16.45;76.68
18755;BME280;35061;47.664;9.166;2022-08-23T01:19:55;101487.41;;;16.41;77.00
18755;BME280;35061;47.664;9.166;2022-08-23T01:25:05;101495.52;;;16.37;76.87
18755;BME280;35061;47.664;9.166;2022-08-23T01:27:36;101500.22;;;16.35;76.67
18755;BME280;35061;47.664;9.166;2022-08-23T01:30:06;101489.70;;;16.31;76.66
18755;BME280;35061;47.664;9.166;2022-08-23T01:32:38;101497.84;;;16.27;76.70
18755;BME280;35061;47.664;9.166;2022-08-23T01:35:08;101509.90;;;16.26;76.86
18755;BME280;35061;47.664;9.166;2022-08-23T01:37:36;101503.07;;;16.23;76.79
18755;BME280;35061;47.664;9.166;2022-08-23T01:40:04;101500.71;;;16.22;76.71
18755;BME280;35061;47.664;9.166;2022-08-23T01:42:32;101508.82;;;16.17;76.65
18755;BME280;35061;47.664;9.166;2022-08-23T01:45:00;101508.82;;;16.17;76.54
18755;BME280;35061;47.664;9.166;2022-08-23T01:47:28;101514.84;;;16.14;76.51
18755;BME280;35061;47.664;9.166;2022-08-23T01:49:56;101519.84;;;16.13;76.50
18755;BME280;35061;47.664;9.166;2022-08-23T01:52:23;101508.79;;;16.12;76.52
18755;BME280;35061;47.664;9.166;2022-08-23T01:54:51;101506.93;;;16.09;76.57
18755;BME280;35061;47.664;9.166;2022-08-23T01:57:19;101511.11;;;16.08;76.70
18755;BME280;35061;47.664;9.166;2022-08-23T01:59:47;101509.54;;;16.07;76.82
18755;BME280;35061;47.664;9.166;2022-08-23T02:02:15;101511.37;;;16.04;76.86
18755;BME280;35061;47.664;9.166;2022-08-23T02:04:43;101507.41;;;16.01;76.98
18755;BME280;35061;47.664;9.166;2022-08-23T02:07:11;101506.86;;;15.97;77.06
18755;BME280;35061;47.664;9.166;2022-08-23T02:09:38;101516.28;;;15.92;77.33
18755;BME280;35061;47.664;9.166;2022-08-23T02:12:07;101525.17;;;15.88;77.48
18755;BME280;35061;47.664;9.166;2022-08-23T02:14:35;101526.19;;;15.85;77.52
18755;BME280;35061;47.664;9.166;2022-08-23T02:17:08;101516.97;;;15.81;77.77
18755;BME280;35061;47.664;9.166;2022-08-23T02:19:37;101528.25;;;15.79;77.90
18755;BME280;35061;47.664;9.166;2022-08-23T02:22:06;101524.29;;;15.76;78.03
18755;BME280;35061;47.664;9.166;2022-08-23T02:24:38;101525.30;;;15.73;78.15
18755;BME280;35061;47.664;9.166;2022-08-23T02:27:07;101522.66;;;15.70;78.53
18755;BME280;35061;47.664;9.166;2022-08-23T02:29:35;101524.48;;;15.67;78.55
18755;BME280;35061;47.664;9.166;2022-08-23T02:32:05;101532.04;;;15.65;78.75
18755;BME280;35061;47.664;9.166;2022-08-23T02:34:35;101527.07;;;15.65;78.99
18755;BME280;35061;47.664;9.166;2022-08-23T02:37:03;101535.48;;;15.63;79.20
18755;BME280;35061;47.664;9.166;2022-08-23T02:39:31;101532.59;;;15.63;79.48
18755;BME280;35061;47.664;9.166;2022-08-23T02:41:59;101536.78;;;15.62;79.73
18755;BME280;35061;47.664;9.166;2022-08-23T02:44:27;101530.99;;;15.62;79.90
18755;BME280;35061;47.664;9.166;2022-08-23T02:46:56;101530.70;;;15.60;80.11
18755;BME280;35061;47.664;9.166;2022-08-23T02:49:24;101536.78;;;15.62;80.21
18755;BME280;35061;47.664;9.166;2022-08-23T02:51:52;101534.88;;;15.59;80.37
18755;BME280;35061;47.664;9.166;2022-08-23T02:54:20;101534.88;;;15.59;80.41
18755;BME280;35061;47.664;9.166;2022-08-23T02:56:48;101543.84;;;15.61;80.58
18755;BME280;35061;47.664;9.166;2022-08-23T02:59:15;101542.24;;;15.60;80.80
18755;BME280;35061;47.664;9.166;2022-08-23T03:01:43;101542.24;;;15.60;80.90
18755;BME280;35061;47.664;9.166;2022-08-23T03:04:11;101541.46;;;15.59;81.04
18755;BME280;35061;47.664;9.166;2022-08-23T03:06:39;101534.88;;;15.59;81.17
18755;BME280;35061;47.664;9.166;2022-08-23T03:09:08;101530.14;;;15.56;81.27
18755;BME280;35061;47.664;9.166;2022-08-23T03:11:36;101549.05;;;15.57;81.40
18755;BME280;35061;47.664;9.166;2022-08-23T03:14:04;101549.05;;;15.57;81.62
18755;BME280;35061;47.664;9.166;2022-08-23T03:16:32;101549.86;;;15.57;81.71
18755;BME280;35061;47.664;9.166;2022-08-23T03:19:00;101548.29;;;15.56;81.88
18755;BME280;35061;47.664;9.166;2022-08-23T03:21:28;101541.69;;;15.56;81.99
18755;BME280;35061;47.664;9.166;2022-08-23T03:23:57;101552.97;;;15.54;82.04
18755;BME280;35061;47.664;9.166;2022-08-23T03:26:25;101552.70;;;15.52;82.22
18755;BME280;35061;47.664;9.166;2022-08-23T03:28:53;101549.50;;;15.49;82.26
18755;BME280;35061;47.664;9.166;2022-08-23T03:31:22;101553.98;;;15.51;82.42
18755;BME280;35061;47.664;9.166;2022-08-23T03:33:49;101549.77;;;15.46;82.52
18755;BME280;35061;47.664;9.166;2022-08-23T03:36:18;101553.42;;;15.46;82.68
18755;BME280;35061;47.664;9.166;2022-08-23T03:38:53;101553.16;;;15.44;82.83
18755;BME280;35061;47.664;9.166;2022-08-23T03:41:21;101552.34;;;15.44;82.96
18755;BME280;35061;47.664;9.166;2022-08-23T03:43:49;101561.77;;;15.39;83.09
18755;BME280;35061;47.664;9.166;2022-08-23T03:46:17;101562.52;;;15.39;83.20
18755;BME280;35061;47.664;9.166;2022-08-23T03:48:57;101564.64;;;15.39;83.31
18755;BME280;35061;47.664;9.166;2022-08-23T03:51:28;101570.43;;;15.39;83.73
18755;BME280;35061;47.664;9.166;2022-08-23T03:53:56;101568.83;;;15.38;83.54
18755;BME280;35061;47.664;9.166;2022-08-23T03:56:30;101572.23;;;15.36;83.64
18755;BME280;35061;47.664;9.166;2022-08-23T03:59:03;101573.24;;;15.33;83.77
18755;BME280;35061;47.664;9.166;2022-08-23T04:01:31;101571.38;;;15.30;83.81
18755;BME280;35061;47.664;9.166;2022-08-23T04:03:59;101573.96;;;15.28;83.83
18755;BME280;35061;47.664;9.166;2022-08-23T04:06:27;101578.15;;;15.27;83.92
18755;BME280;35061;47.664;9.166;2022-08-23T04:08:55;101579.20;;;15.24;84.02
18755;BME280;35061;47.664;9.166;2022-08-23T04:11:23;101580.47;;;15.23;84.19
18755;BME280;35061;47.664;9.166;2022-08-23T04:13:52;101580.20;;;15.20;84.30
18755;BME280;35061;47.664;9.166;2022-08-23T04:16:20;101589.85;;;15.17;84.25
18755;BME280;35061;47.664;9.166;2022-08-23T04:18:48;101587.20;;;15.14;84.51
18755;BME280;35061;47.664;9.166;2022-08-23T04:21:18;101597.67;;;15.11;84.77
18755;BME280;35061;47.664;9.166;2022-08-23T04:23:48;101598.16;;;15.10;85.08
18755;BME280;35061;47.664;9.166;2022-08-23T04:26:16;101596.30;;;15.06;85.29
18755;BME280;35061;47.664;9.166;2022-08-23T04:28:45;101606.27;;;15.05;85.46
18755;BME280;35061;47.664;9.166;2022-08-23T04:31:13;101596.79;;;15.05;85.67
18755;BME280;35061;47.664;9.166;2022-08-23T04:33:43;101600.97;;;15.04;85.82
18755;BME280;35061;47.664;9.166;2022-08-23T04:36:18;101608.55;;;15.01;86.64
18755;BME280;35061;47.664;9.166;2022-08-23T04:38:49;101603.88;;;15.04;86.59
18755;BME280;35061;47.664;9.166;2022-08-23T04:41:17;101603.88;;;15.04;86.71
18755;BME280;35061;47.664;9.166;2022-08-23T04:44:03;101611.20;;;15.05;86.83
18755;BME280;35061;47.664;9.166;2022-08-23T04:46:32;101609.15;;;15.05;86.96
18755;BME280;35061;47.664;9.166;2022-08-23T04:49:00;101611.20;;;15.05;87.09
18755;BME280;35061;47.664;9.166;2022-08-23T04:51:27;101612.81;;;15.06;87.17
18755;BME280;35061;47.664;9.166;2022-08-23T04:53:55;101610.20;;;15.08;87.30
18755;BME280;35061;47.664;9.166;2022-08-23T04:56:23;101613.07;;;15.08;87.63
18755;BME280;35061;47.664;9.166;2022-08-23T04:58:51;101620.16;;;15.07;88.37
18755;BME280;35061;47.664;9.166;2022-08-23T05:01:19;101624.94;;;15.10;88.37
18755;BME280;35061;47.664;9.166;2022-08-23T05:03:47;101627.00;;;15.10;90.66
18755;BME280;35061;47.664;9.166;2022-08-23T05:06:15;101624.62;;;15.08;90.70
18755;BME280;35061;47.664;9.166;2022-08-23T05:08:42;101631.74;;;15.13;90.34
18755;BME280;35061;47.664;9.166;2022-08-23T05:11:10;101637.53;;;15.13;91.21
18755;BME280;35061;47.664;9.166;2022-08-23T05:13:38;101629.20;;;15.15;91.10
18755;BME280;35061;47.664;9.166;2022-08-23T05:16:06;101638.91;;;15.17;90.65
18755;BME280;35061;47.664;9.166;2022-08-23T05:18:34;101635.02;;;15.20;90.78
18755;BME280;35061;47.664;9.166;2022-08-23T05:21:02;101637.37;;;15.22;91.00
18755;BME280;35061;47.664;9.166;2022-08-23T05:23:31;101631.91;;;15.24;91.03
18755;BME280;35061;47.664;9.166;2022-08-23T05:25:59;101632.20;;;15.26;90.78
18755;BME280;35061;47.664;9.166;2022-08-23T05:28:29;101641.91;;;15.29;91.55
18755;BME280;35061;47.664;9.166;2022-08-23T05:31:03;101621.21;;;15.30;91.40
18755;BME280;35061;47.664;9.166;2022-08-23T05:33:36;101631.22;;;15.35;90.62
18755;BME280;35061;47.664;9.166;2022-08-23T05:36:04;101630.20;;;15.38;90.23
18755;BME280;35061;47.664;9.166;2022-08-23T05:38:32;101636.58;;;15.42;90.01
18755;BME280;35061;47.664;9.166;2022-08-23T05:41:02;101631.84;;;15.45;89.70
18755;BME280;35061;47.664;9.166;2022-08-23T05:43:32;101634.03;;;15.50;89.79
18755;BME280;35061;47.664;9.166;2022-08-23T05:46:12;101634.88;;;15.56;89.73
18755;BME280;35061;47.664;9.166;2022-08-23T05:48:45;101639.10;;;15.61;89.32
18755;BME280;35061;47.664;9.166;2022-08-23T05:51:26;101635.99;;;15.65;88.88
18755;BME280;35061;47.664;9.166;2022-08-23T05:53:57;101644.13;;;15.66;88.48
18755;BME280;35061;47.664;9.166;2022-08-23T05:56:28;101647.30;;;15.68;88.27
18755;BME280;35061;47.664;9.166;2022-08-23T05:58:59;101648.68;;;15.73;87.69
18755;BME280;35061;47.664;9.166;2022-08-23T06:01:28;101653.72;;;15.78;87.31
18755;BME280;35061;47.664;9.166;2022-08-23T06:04:01;101656.37;;;15.82;86.82
18755;BME280;35061;47.664;9.166;2022-08-23T06:06:30;101664.28;;;15.87;86.24
18755;BME280;35061;47.664;9.166;2022-08-23T06:09:03;101666.44;;;15.92;86.19
18755;BME280;35061;47.664;9.166;2022-08-23T06:11:32;101663.63;;;15.98;86.05
18755;BME280;35061;47.664;9.166;2022-08-23T06:14:03;101668.92;;;16.05;85.92
18755;BME280;35061;47.664;9.166;2022-08-23T06:16:40;101668.20;;;16.10;85.56
18755;BME280;35061;47.664;9.166;2022-08-23T06:19:08;101673.50;;;16.17;85.18
18755;BME280;35061;47.664;9.166;2022-08-23T06:21:36;101673.04;;;16.25;85.12
18755;BME280;35061;47.664;9.166;2022-08-23T06:24:05;101674.16;;;16.33;84.86
18755;BME280;35061;47.664;9.166;2022-08-23T06:26:38;101667.62;;;16.38;84.64
18755;BME280;35061;47.664;9.166;2022-08-23T06:29:15;101678.99;;;16.48;84.47
18755;BME280;35061;47.664;9.166;2022-08-23T06:31:47;101677.98;;;16.56;83.79
18755;BME280;35061;47.664;9.166;2022-08-23T06:34:19;101673.83;;;16.63;83.58
18755;BME280;35061;47.664;9.166;2022-08-23T06:36:50;101685.99;;;16.73;83.23
18755;BME280;35061;47.664;9.166;2022-08-23T06:39:21;101687.07;;;16.81;82.47
18755;BME280;35061;47.664;9.166;2022-08-23T06:41:50;101684.98;;;16.87;82.16
18755;BME280;35061;47.664;9.166;2022-08-23T06:44:19;101687.40;;;16.95;81.76
18755;BME280;35061;47.664;9.166;2022-08-23T06:46:46;101690.63;;;17.02;81.41
18755;BME280;35061;47.664;9.166;2022-08-23T06:49:15;101696.72;;;17.10;81.05
18755;BME280;35061;47.664;9.166;2022-08-23T06:51:48;101695.45;;;17.17;80.18
18755;BME280;35061;47.664;9.166;2022-08-23T06:54:21;101691.78;;;17.22;79.79
18755;BME280;35061;47.664;9.166;2022-08-23T06:56:52;101693.35;;;17.29;79.30
18755;BME280;35061;47.664;9.166;2022-08-23T06:59:20;101697.86;;;17.36;79.15
18755;BME280;35061;47.664;9.166;2022-08-23T07:04:38;101697.11;;;17.47;78.75
18755;BME280;35061;47.664;9.166;2022-08-23T07:07:07;101700.28;;;17.54;78.07
18755;BME280;35061;47.664;9.166;2022-08-23T07:09:38;101700.84;;;17.58;78.42
18755;BME280;35061;47.664;9.166;2022-08-23T07:12:07;101697.66;;;17.62;78.42
18755;BME280;35061;47.664;9.166;2022-08-23T07:14:36;101699.79;;;17.67;78.37
18755;BME280;35061;47.664;9.166;2022-08-23T07:17:04;101711.40;;;17.73;78.06
18755;BME280;35061;47.664;9.166;2022-08-23T07:19:33;101698.74;;;17.76;78.05
18755;BME280;35061;47.664;9.166;2022-08-23T07:22:03;101708.52;;;17.79;77.54
18755;BME280;35061;47.664;9.166;2022-08-23T07:24:31;101710.62;;;17.78;77.43
18755;BME280;35061;47.664;9.166;2022-08-23T07:27:00;101702.21;;;17.80;77.36
18755;BME280;35061;47.664;9.166;2022-08-23T07:29:34;101705.61;;;17.84;76.96
18755;BME280;35061;47.664;9.166;2022-08-23T07:32:03;101714.84;;;17.89;77.12
18755;BME280;35061;47.664;9.166;2022-08-23T07:34:31;101715.39;;;17.93;77.03
18755;BME280;35061;47.664;9.166;2022-08-23T07:36:59;101712.25;;;17.96;76.62
18755;BME280;35061;47.664;9.166;2022-08-23T07:39:28;101715.91;;;18.03;76.63
18755;BME280;35061;47.664;9.166;2022-08-23T07:42:01;101707.51;;;18.05;76.22
18755;BME280;35061;47.664;9.166;2022-08-23T07:44:49;101721.24;;;18.10;75.86
18755;BME280;35061;47.664;9.166;2022-08-23T07:47:18;101721.73;;;18.14;75.96
18755;BME280;35061;47.664;9.166;2022-08-23T07:49:46;101718.86;;;18.20;76.12
18755;BME280;35061;47.664;9.166;2022-08-23T07:52:14;101723.34;;;18.26;75.83
18755;BME280;35061;47.664;9.166;2022-08-23T07:54:41;101727.03;;;18.33;75.69
18755;BME280;35061;47.664;9.166;2022-08-23T07:57:14;101734.39;;;18.39;75.50
18755;BME280;35061;47.664;9.166;2022-08-23T07:59:42;101730.17;;;18.46;75.63
18755;BME280;35061;47.664;9.166;2022-08-23T08:02:10;101737.56;;;18.59;75.63
18755;BME280;35061;47.664;9.166;2022-08-23T08:04:38;101738.84;;;18.69;75.40
18755;BME280;35061;47.664;9.166;2022-08-23T08:07:06;101744.66;;;18.80;75.12
18755;BME280;35061;47.664;9.166;2022-08-23T08:09:45;101736.45;;;18.90;74.67
18755;BME280;35061;47.664;9.166;2022-08-23T08:12:13;101734.87;;;19.01;73.93
18755;BME280;35061;47.664;9.166;2022-08-23T08:14:41;101732.46;;;19.10;73.51
18755;BME280;35061;47.664;9.166;2022-08-23T08:17:09;101728.73;;;19.21;73.06
18755;BME280;35061;47.664;9.166;2022-08-23T08:19:37;101744.52;;;19.32;72.59
18755;BME280;35061;47.664;9.166;2022-08-23T08:22:05;101742.89;;;19.42;72.27
18755;BME280;35061;47.664;9.166;2022-08-23T08:24:32;101745.51;;;19.51;72.10
18755;BME280;35061;47.664;9.166;2022-08-23T08:27:00;101746.23;;;19.63;71.96
18755;BME280;35061;47.664;9.166;2022-08-23T08:29:28;101750.38;;;19.74;71.70
18755;BME280;35061;47.664;9.166;2022-08-23T08:31:56;101740.57;;;19.83;71.52
18755;BME280;35061;47.664;9.166;2022-08-23T08:34:24;101741.32;;;19.89;71.10
18755;BME280;35061;47.664;9.166;2022-08-23T08:36:54;101742.89;;;19.96;70.67
18755;BME280;35061;47.664;9.166;2022-08-23T08:39:29;101741.55;;;20.02;70.23
18755;BME280;35061;47.664;9.166;2022-08-23T08:44:47;101735.34;;;20.17;68.49
18755;BME280;35061;47.664;9.166;2022-08-23T08:47:27;101737.43;;;20.22;68.52
18755;BME280;35061;47.664;9.166;2022-08-23T08:50:06;101741.38;;;20.25;68.53
18755;BME280;35061;47.664;9.166;2022-08-23T08:52:48;101742.34;;;20.33;67.98
18755;BME280;35061;47.664;9.166;2022-08-23T08:55:22;101744.66;;;20.41;67.69
18755;BME280;35061;47.664;9.166;2022-08-23T08:57:51;101752.51;;;20.52;67.74
18755;BME280;35061;47.664;9.166;2022-08-23T09:00:32;101757.48;;;20.57;67.80
18755;BME280;35061;47.664;9.166;2022-08-23T09:03:11;101748.94;;;20.64;67.43
18755;BME280;35061;47.664;9.166;2022-08-23T09:05:56;101747.83;;;20.73;67.31
18755;BME280;35061;47.664;9.166;2022-08-23T09:19:06;101750.51;;;20.96;65.57
18755;BME280;35061;47.664;9.166;2022-08-23T09:21:55;101750.70;;;21.04;65.88
18755;BME280;35061;47.664;9.166;2022-08-23T09:24:24;101749.85;;;21.09;65.09
18755;BME280;35061;47.664;9.166;2022-08-23T09:26:53;101747.96;;;21.12;64.96
18755;BME280;35061;47.664;9.166;2022-08-23T09:34:41;101751.91;;;21.33;64.60
18755;BME280;35061;47.664;9.166;2022-08-23T09:40:28;101755.19;;;21.49;64.31
18755;BME280;35061;47.664;9.166;2022-08-23T09:42:34;101745.27;;;21.58;63.77
18755;BME280;35061;47.664;9.166;2022-08-23T09:47:50;101740.80;;;21.76;62.33
18755;BME280;35061;47.664;9.166;2022-08-23T09:50:35;101744.43;;;21.82;61.86
18755;BME280;35061;47.664;9.166;2022-08-23T09:53:09;101743.80;;;21.89;59.70
18755;BME280;35061;47.664;9.166;2022-08-23T09:55:43;101742.37;;;21.96;60.37
18755;BME280;35061;47.664;9.166;2022-08-23T09:58:25;101742.53;;;22.04;60.11
18755;BME280;35061;47.664;9.166;2022-08-23T10:03:46;101749.95;;;22.19;59.35
18755;BME280;35061;47.664;9.166;2022-08-23T10:06:29;101744.85;;;22.25;59.23
18755;BME280;35061;47.664;9.166;2022-08-23T10:08:57;101744.76;;;22.30;59.10
18755;BME280;35061;47.664;9.166;2022-08-23T10:11:38;101742.76;;;22.39;59.35
18755;BME280;35061;47.664;9.166;2022-08-23T10:14:08;101734.45;;;22.43;57.77
18755;BME280;35061;47.664;9.166;2022-08-23T10:19:43;101736.88;;;22.58;57.43
18755;BME280;35061;47.664;9.166;2022-08-23T10:22:23;101732.52;;;22.65;55.64
18755;BME280;35061;47.664;9.166;2022-08-23T10:30:24;101723.44;;;22.82;52.26
18755;BME280;35061;47.664;9.166;2022-08-23T10:33:13;101729.16;;;22.87;52.33
18755;BME280;35061;47.664;9.166;2022-08-23T10:36:05;101727.49;;;22.92;52.97
18755;BME280;35061;47.664;9.166;2022-08-23T10:38:51;101719.97;;;22.97;51.67
18755;BME280;35061;47.664;9.166;2022-08-23T10:41:41;101728.60;;;23.03;50.42
18755;BME280;35061;47.664;9.166;2022-08-23T10:44:37;101715.59;;;23.04;50.06
18755;BME280;35061;47.664;9.166;2022-08-23T10:49:47;101711.11;;;23.16;50.51
18755;BME280;35061;47.664;9.166;2022-08-23T10:52:28;101704.89;;;23.20;50.12
18755;BME280;35061;47.664;9.166;2022-08-23T10:55:02;101709.77;;;23.31;50.24
18755;BME280;35061;47.664;9.166;2022-08-23T10:57:45;101703.78;;;23.36;49.72
18755;BME280;35061;47.664;9.166;2022-08-23T11:00:20;101700.74;;;23.42;46.71
18755;BME280;35061;47.664;9.166;2022-08-23T11:03:19;101693.19;;;23.47;46.37
18755;BME280;35061;47.664;9.166;2022-08-23T11:09:30;101697.21;;;23.57;45.17
18755;BME280;35061;47.664;9.166;2022-08-23T11:14:44;101688.18;;;23.68;45.24
18755;BME280;35061;47.664;9.166;2022-08-23T11:20:11;101690.08;;;23.79;43.51
18755;BME280;35061;47.664;9.166;2022-08-23T11:33:28;101681.61;;;24.10;41.88
18755;BME280;35061;47.664;9.166;2022-08-23T11:43:47;101678.90;;;24.34;40.40
18755;BME280;35061;47.664;9.166;2022-08-23T12:01:03;101664.34;;;24.71;39.17
18755;BME280;35061;47.664;9.166;2022-08-23T12:08:50;101653.88;;;24.83;40.01
18755;BME280;35061;47.664;9.166;2022-08-23T12:11:23;101644.17;;;24.88;40.79
18755;BME280;35061;47.664;9.166;2022-08-23T12:13:58;101651.63;;;24.97;41.12
18755;BME280;35061;47.664;9.166;2022-08-23T12:16:31;101642.47;;;25.01;40.97
18755;BME280;35061;47.664;9.166;2022-08-23T12:19:05;101632.73;;;25.06;40.76
18755;BME280;35061;47.664;9.166;2022-08-23T12:21:40;101640.37;;;25.09;40.42
18755;BME280;35061;47.664;9.166;2022-08-23T12:24:20;101641.55;;;25.14;41.07
18755;BME280;35061;47.664;9.166;2022-08-23T12:30:05;101641.59;;;25.21;42.06
18755;BME280;35061;47.664;9.166;2022-08-23T12:32:46;101642.80;;;25.26;42.01
18755;BME280;35061;47.664;9.166;2022-08-23T12:40:51;101641.06;;;25.39;42.57
18755;BME280;35061;47.664;9.166;2022-08-23T12:43:28;101637.76;;;25.42;42.49
18755;BME280;35061;47.664;9.166;2022-08-23T12:45:58;101637.20;;;25.44;42.08
18755;BME280;35061;47.664;9.166;2022-08-23T12:48:30;101638.15;;;25.46;41.65
18755;BME280;35061;47.664;9.166;2022-08-23T12:51:06;101632.30;;;25.46;41.53
18755;BME280;35061;47.664;9.166;2022-08-23T12:53:39;101641.29;;;25.48;41.30
18755;BME280;35061;47.664;9.166;2022-08-23T12:56:20;101638.19;;;25.54;41.37
18755;BME280;35061;47.664;9.166;2022-08-23T12:59:00;101639.00;;;25.55;41.42
18755;BME280;35061;47.664;9.166;2022-08-23T13:01:34;101634.69;;;25.56;41.21
18755;BME280;35061;47.664;9.166;2022-08-23T13:04:08;101639.00;;;25.55;40.68
18755;BME280;35061;47.664;9.166;2022-08-23T13:06:46;101639.36;;;25.51;40.63
18755;BME280;35061;47.664;9.166;2022-08-23T13:09:31;101626.61;;;25.48;40.20
18755;BME280;35061;47.664;9.166;2022-08-23T13:12:00;101627.79;;;25.45;40.64
18755;BME280;35061;47.664;9.166;2022-08-23T13:19:47;101627.59;;;25.35;40.65
18755;BME280;35061;47.664;9.166;2022-08-23T13:22:23;101624.22;;;25.31;41.05
18755;BME280;35061;47.664;9.166;2022-08-23T13:24:59;101613.49;;;25.26;40.78
18755;BME280;35061;47.664;9.166;2022-08-23T13:33:16;101616.96;;;25.17;42.12
18755;BME280;35061;47.664;9.166;2022-08-23T13:35:41;101616.57;;;25.13;42.32
18755;BME280;35061;47.664;9.166;2022-08-23T13:38:19;101608.16;;;25.09;42.10
18755;BME280;35061;47.664;9.166;2022-08-23T13:40:59;101604.80;;;25.05;41.67
18755;BME280;35061;47.664;9.166;2022-08-23T13:46:24;101601.46;;;25.01;41.73
18755;BME280;35061;47.664;9.166;2022-08-23T13:49:03;101603.59;;;25.00;41.23
18755;BME280;35061;47.664;9.166;2022-08-23T13:51:40;101605.78;;;25.00;41.04
18755;BME280;35061;47.664;9.166;2022-08-23T13:54:11;101604.21;;;24.99;41.70
18755;BME280;35061;47.664;9.166;2022-08-23T13:56:47;101611.44;;;24.98;42.41
18755;BME280;35061;47.664;9.166;2022-08-23T13:59:29;101602.21;;;24.93;43.07
18755;BME280;35061;47.664;9.166;2022-08-23T14:01:59;101602.02;;;24.91;42.93
18755;BME280;35061;47.664;9.166;2022-08-23T14:04:28;101602.02;;;24.91;42.43
18755;BME280;35061;47.664;9.166;2022-08-23T14:06:56;101606.30;;;24.90;41.90
18755;BME280;35061;47.664;9.166;2022-08-23T14:09:24;101604.73;;;24.89;42.25
18755;BME280;35061;47.664;9.166;2022-08-23T14:11:54;101596.95;;;24.92;42.26
18755;BME280;35061;47.664;9.166;2022-08-23T14:14:25;101604.38;;;24.93;41.64
18755;BME280;35061;47.664;9.166;2022-08-23T14:16:56;101598.16;;;24.97;41.13
18755;BME280;35061;47.664;9.166;2022-08-23T14:19:28;101602.64;;;24.98;41.30
18755;BME280;35061;47.664;9.166;2022-08-23T14:22:18;101598.91;;;24.97;41.46
18755;BME280;35061;47.664;9.166;2022-08-23T14:24:46;101601.46;;;25.01;41.15
18755;BME280;35061;47.664;9.166;2022-08-23T14:27:13;101591.52;;;25.04;40.65
18755;BME280;35061;47.664;9.166;2022-08-23T14:29:41;101590.93;;;25.05;40.88
18755;BME280;35061;47.664;9.166;2022-08-23T14:32:09;101590.38;;;25.07;41.13
18755;BME280;35061;47.664;9.166;2022-08-23T14:34:37;101592.50;;;25.06;40.97
18755;BME280;35061;47.664;9.166;2022-08-23T14:37:05;101589.79;;;25.08;40.34
18755;BME280;35061;47.664;9.166;2022-08-23T14:39:52;101587.63;;;25.09;40.23
18755;BME280;35061;47.664;9.166;2022-08-23T14:42:21;101591.52;;;25.12;40.05
18755;BME280;35061;47.664;9.166;2022-08-23T14:44:50;101584.10;;;25.11;39.72
18755;BME280;35061;47.664;9.166;2022-08-23T14:47:18;101584.33;;;25.13;39.88
18755;BME280;35061;47.664;9.166;2022-08-23T14:49:46;101591.16;;;25.15;39.92
18755;BME280;35061;47.664;9.166;2022-08-23T14:52:19;101589.59;;;25.14;39.89
18755;BME280;35061;47.664;9.166;2022-08-23T14:54:46;101579.26;;;25.13;39.78
18755;BME280;35061;47.664;9.166;2022-08-23T14:57:15;101587.11;;;25.18;39.30
18755;BME280;35061;47.664;9.166;2022-08-23T14:59:43;101588.28;;;25.23;39.18
18755;BME280;35061;47.664;9.166;2022-08-23T15:02:12;101586.13;;;25.23;39.16
18755;BME280;35061;47.664;9.166;2022-08-23T15:04:42;101587.30;;;25.28;39.27
18755;BME280;35061;47.664;9.166;2022-08-23T15:07:10;101591.23;;;25.31;39.74
18755;BME280;35061;47.664;9.166;2022-08-23T15:09:47;101585.77;;;25.35;39.80
18755;BME280;35061;47.664;9.166;2022-08-23T15:12:18;101590.45;;;25.38;39.88